createdAt,value
2019-01-17T00:01:49.213Z,99318.95
2019-01-17T00:04:20.909Z,99333.36
2019-01-17T00:06:52.052Z,99330.75
2019-01-17T00:09:23.264Z,99330.23
2019-01-17T00:12:00.021Z,99329.72
2019-01-17T00:14:47.386Z,99332.36
2019-01-17T00:17:27.436Z,99326.46
2019-01-17T00:20:10.616Z,99328.03
2019-01-17T00:22:44.724Z,99332.79
2019-01-17T00:25:21.818Z,99337.98
2019-01-17T00:27:56.155Z,99337.84
2019-01-17T00:30:42.475Z,99344.19
2019-01-17T00:33:28.714Z,99337.00
2019-01-17T00:35:59.853Z,99337.66
2019-01-17T00:38:34.029Z,99329.09
2019-01-17T00:41:05.205Z,99338.33
2019-01-17T00:43:36.305Z,99325.04
2019-01-17T00:46:10.568Z,99326.85
2019-01-17T00:48:41.705Z,99325.13
2019-01-17T00:51:29.107Z,99312.28
2019-01-17T00:54:08.956Z,99318.16
2019-01-17T00:56:48.552Z,99315.11
2019-01-17T00:59:19.730Z,99313.63
2019-01-17T01:01:57.174Z,99306.97
2019-01-17T01:04:28.364Z,99314.00
2019-01-17T01:07:17.211Z,99315.35
2019-01-17T01:09:51.669Z,99312.66
2019-01-17T01:12:22.932Z,99305.49
2019-01-17T01:15:12.339Z,99313.19
2019-01-17T01:17:43.549Z,99304.97
2019-01-17T01:20:29.750Z,99314.75
2019-01-17T01:23:01.150Z,99319.59
2019-01-17T01:25:32.446Z,99320.80
2019-01-17T01:28:18.800Z,99319.52
2019-01-17T01:30:53.220Z,99308.48
2019-01-17T01:33:24.599Z,99309.58
2019-01-17T01:35:58.570Z,99296.28
2019-01-17T01:38:46.219Z,99295.02
2019-01-17T01:41:17.459Z,99299.07
2019-01-17T01:43:48.686Z,99307.52
2019-01-17T01:46:32.307Z,99302.50
2019-01-17T01:49:15.736Z,99297.78
2019-01-17T01:51:49.581Z,99305.09
2019-01-17T01:54:22.082Z,99306.69
2019-01-17T01:56:51.040Z,99312.39
2019-01-17T01:59:23.374Z,99312.25
2019-01-17T02:01:52.955Z,99323.57
2019-01-17T02:04:22.594Z,99320.73
2019-01-17T02:06:52.259Z,99316.09
2019-01-17T02:09:22.109Z,99304.50
2019-01-17T02:11:51.838Z,99292.13
2019-01-17T02:14:21.486Z,99280.72
2019-01-17T02:16:51.259Z,99283.87
2019-01-17T02:19:20.933Z,99288.47
2019-01-17T02:21:50.583Z,99293.98
2019-01-17T02:24:21.831Z,99284.80
2019-01-17T02:26:51.555Z,99283.09
2019-01-17T02:29:21.152Z,99285.55
2019-01-17T02:31:50.691Z,99287.45
2019-01-17T02:34:20.230Z,99291.72
2019-01-17T02:36:49.963Z,99300.68
2019-01-17T02:39:19.675Z,99295.91
2019-01-17T02:41:49.358Z,99291.27
2019-01-17T02:44:18.893Z,99292.52
2019-01-17T02:46:48.409Z,99294.48
2019-01-17T02:49:18.232Z,99300.53
2019-01-17T02:52:47.136Z,99298.72
2019-01-17T02:55:16.867Z,99298.73
2019-01-17T02:57:46.488Z,99293.21
2019-01-17T03:00:17.461Z,99302.61
2019-01-17T03:02:51.505Z,99296.26
2019-01-17T03:05:21.152Z,99286.84
2019-01-17T03:07:50.790Z,99298.07
2019-01-17T03:10:21.236Z,99292.45
2019-01-17T03:12:50.925Z,99282.86
2019-01-17T03:15:20.936Z,99276.52
2019-01-17T03:17:51.103Z,99275.67
2019-01-17T03:20:21.571Z,99285.17
2019-01-17T03:22:51.476Z,99289.71
2019-01-17T03:25:21.159Z,99280.08
2019-01-17T03:27:50.837Z,99281.12
2019-01-17T03:30:20.399Z,99295.04
2019-01-17T03:32:50.000Z,99296.81
2019-01-17T03:35:20.104Z,99295.09
2019-01-17T03:37:49.696Z,99296.52
2019-01-17T03:40:19.319Z,99303.11
2019-01-17T03:42:49.893Z,99292.55
2019-01-17T03:45:19.624Z,99289.22
2019-01-17T03:47:49.351Z,99290.91
2019-01-17T03:50:18.988Z,99302.86
2019-01-17T03:52:48.609Z,99300.02
2019-01-17T03:55:19.521Z,99294.64
2019-01-17T03:57:49.281Z,99292.80
2019-01-17T04:00:19.857Z,99288.16
2019-01-17T04:02:49.487Z,99288.61
2019-01-17T04:05:19.095Z,99276.34
2019-01-17T04:07:48.917Z,99282.48
2019-01-17T04:10:18.717Z,99290.98
2019-01-17T04:12:48.468Z,99287.50
2019-01-17T04:15:18.198Z,99278.16
2019-01-17T04:17:47.730Z,99282.78
2019-01-17T04:20:17.517Z,99283.91
2019-01-17T04:22:47.180Z,99280.09
2019-01-17T04:25:16.944Z,99275.38
2019-01-17T04:27:46.678Z,99277.56
2019-01-17T04:30:17.610Z,99280.06
2019-01-17T04:32:47.266Z,99285.22
2019-01-17T04:35:17.810Z,99285.22
2019-01-17T04:37:47.474Z,99288.12
2019-01-17T04:40:16.986Z,99287.13
2019-01-17T04:42:46.666Z,99279.81
2019-01-17T04:45:16.238Z,99276.87
2019-01-17T04:47:45.985Z,99281.21
2019-01-17T04:50:15.495Z,99280.56
2019-01-17T04:52:45.334Z,99278.84
2019-01-17T04:55:15.033Z,99284.22
2019-01-17T04:57:44.586Z,99287.71
2019-01-17T05:00:17.246Z,99280.67
2019-01-17T05:02:47.581Z,99284.58
2019-01-17T05:05:17.363Z,99270.77
2019-01-17T05:07:46.967Z,99271.52
2019-01-17T05:10:18.251Z,99270.17
2019-01-17T05:12:47.759Z,99268.51
2019-01-17T05:15:17.350Z,99271.59
2019-01-17T05:17:47.006Z,99272.65
2019-01-17T05:20:16.806Z,99278.90
2019-01-17T05:22:46.553Z,99280.94
2019-01-17T05:25:16.418Z,99280.41
2019-01-17T05:27:46.099Z,99293.17
2019-01-17T05:30:19.305Z,99281.06
2019-01-17T05:32:49.155Z,99278.53
2019-01-17T05:35:18.847Z,99276.94
2019-01-17T05:37:48.492Z,99281.72
2019-01-17T05:40:19.531Z,99280.44
2019-01-17T05:42:49.206Z,99281.28
2019-01-17T05:45:18.966Z,99275.84
2019-01-17T05:47:48.608Z,99282.34
2019-01-17T05:50:18.794Z,99279.47
2019-01-17T05:52:48.416Z,99271.72
2019-01-17T05:55:20.081Z,99284.34
2019-01-17T05:57:49.777Z,99280.10
2019-01-17T06:00:20.786Z,99282.98
2019-01-17T06:02:50.359Z,99282.34
2019-01-17T06:05:20.091Z,99278.81
2019-01-17T06:07:49.696Z,99282.27
2019-01-17T06:10:19.403Z,99283.31
2019-01-17T06:12:49.379Z,99283.59
2019-01-17T06:15:20.817Z,99283.69
2019-01-17T06:17:50.330Z,99284.01
2019-01-17T06:20:20.142Z,99281.22
2019-01-17T06:22:49.923Z,99281.89
2019-01-17T06:25:27.771Z,99281.88
2019-01-17T06:28:04.446Z,99273.08
2019-01-17T06:30:34.027Z,99276.88
2019-01-17T06:33:03.655Z,99275.77
2019-01-17T06:35:33.395Z,99282.16
2019-01-17T06:38:03.155Z,99285.23
2019-01-17T06:40:33.087Z,99284.38
2019-01-17T06:43:02.616Z,99280.22
2019-01-17T06:45:32.230Z,99283.13
2019-01-17T06:48:01.776Z,99281.61
2019-01-17T06:50:31.417Z,99285.88
2019-01-17T06:53:02.183Z,99285.55
2019-01-17T06:55:34.529Z,99281.37
2019-01-17T06:58:05.061Z,99278.06
2019-01-17T07:00:34.767Z,99282.02
2019-01-17T07:03:04.339Z,99286.59
2019-01-17T07:05:33.921Z,99283.96
2019-01-17T07:08:03.615Z,99285.16
2019-01-17T07:10:33.158Z,99289.44
2019-01-17T07:13:02.742Z,99299.17
2019-01-17T07:15:32.380Z,99293.30
2019-01-17T07:18:01.869Z,99287.49
2019-01-17T07:20:31.570Z,99294.52
2019-01-17T07:23:01.113Z,99299.97
2019-01-17T07:25:30.742Z,99300.99
2019-01-17T07:28:00.272Z,99298.91
2019-01-17T07:30:30.024Z,99296.53
2019-01-17T07:32:59.575Z,99305.02
2019-01-17T07:35:41.351Z,99303.18
2019-01-17T07:38:10.949Z,99304.28
2019-01-17T07:40:40.534Z,99318.56
2019-01-17T07:43:10.151Z,99326.25
2019-01-17T07:45:39.752Z,99314.13
2019-01-17T07:48:09.307Z,99330.80
2019-01-17T07:50:38.971Z,99320.86
2019-01-17T07:53:08.639Z,99320.70
2019-01-17T07:55:38.139Z,99306.43
2019-01-17T07:58:07.757Z,99318.33
2019-01-17T08:00:37.458Z,99308.46
2019-01-17T08:03:07.080Z,99312.73
2019-01-17T08:05:36.706Z,99319.05
2019-01-17T08:08:06.328Z,99319.45
2019-01-17T08:10:35.913Z,99315.92
2019-01-17T08:13:05.560Z,99307.27
2019-01-17T08:15:35.192Z,99308.38
2019-01-17T08:18:04.952Z,99304.97
2019-01-17T08:20:34.495Z,99306.73
2019-01-17T08:23:04.022Z,99309.20
2019-01-17T08:25:33.541Z,99303.83
2019-01-17T08:28:03.263Z,99307.56
2019-01-17T08:30:32.806Z,99313.31
2019-01-17T08:33:02.495Z,99311.69
2019-01-17T08:35:32.031Z,99307.21
2019-01-17T08:38:01.493Z,99303.69
2019-01-17T08:40:31.624Z,99295.93
2019-01-17T08:43:01.069Z,99297.70
2019-01-17T08:45:30.544Z,99302.95
2019-01-17T08:48:00.498Z,99308.41
2019-01-17T08:50:30.167Z,99316.69
2019-01-17T08:52:59.907Z,99307.21
2019-01-17T08:55:29.502Z,99302.73
2019-01-17T08:57:59.105Z,99298.03
2019-01-17T09:00:28.635Z,99305.02
2019-01-17T09:02:58.252Z,99321.38
2019-01-17T09:05:27.864Z,99326.10
2019-01-17T09:07:57.614Z,99315.50
2019-01-17T09:10:29.033Z,99315.13
2019-01-17T09:12:58.542Z,99323.86
2019-01-17T09:15:30.612Z,99326.61
2019-01-17T09:18:00.179Z,99322.57
2019-01-17T09:20:29.776Z,99324.23
2019-01-17T09:22:59.381Z,99317.57
2019-01-17T09:25:29.149Z,99317.89
2019-01-17T09:27:58.665Z,99319.53
2019-01-17T09:30:28.335Z,99321.70
2019-01-17T09:32:57.882Z,99328.13
2019-01-17T09:35:27.492Z,99308.86
2019-01-17T09:37:57.172Z,99305.92
2019-01-17T09:40:26.757Z,99308.76
2019-01-17T09:42:56.420Z,99305.55
2019-01-17T09:45:25.971Z,99310.80
2019-01-17T09:47:55.688Z,99306.17
2019-01-17T09:50:26.014Z,99305.64
2019-01-17T09:52:55.640Z,99311.02
2019-01-17T09:55:25.138Z,99295.02
2019-01-17T09:57:54.820Z,99291.38
2019-01-17T10:00:29.045Z,99285.08
2019-01-17T10:02:58.553Z,99290.83
2019-01-17T10:05:28.375Z,99288.34
2019-01-17T10:07:57.825Z,99276.66
2019-01-17T10:10:27.435Z,99293.36
2019-01-17T10:12:57.099Z,99286.47
2019-01-17T10:15:35.847Z,99289.39
2019-01-17T10:18:40.785Z,99284.28
2019-01-17T10:21:16.478Z,99286.23
2019-01-17T10:23:57.960Z,99291.00
2019-01-17T10:26:39.905Z,99286.23
2019-01-17T10:29:29.419Z,99272.55
2019-01-17T10:32:02.243Z,99280.59
2019-01-17T10:34:58.792Z,99264.91
2019-01-17T10:37:49.649Z,99265.56
2019-01-17T10:40:35.497Z,99269.61
2019-01-17T10:43:17.151Z,99272.38
2019-01-17T10:45:53.234Z,99266.12
2019-01-17T10:48:31.777Z,99270.06
2019-01-17T10:51:21.561Z,99277.67
2019-01-17T10:54:06.385Z,99274.28
2019-01-17T10:56:41.480Z,99279.20
2019-01-17T10:59:25.646Z,99280.78
2019-01-17T11:02:10.441Z,99286.91
2019-01-17T11:04:43.331Z,99286.97
2019-01-17T11:07:34.269Z,99279.45
2019-01-17T11:10:28.519Z,99287.80
2019-01-17T11:13:04.103Z,99278.85
2019-01-17T11:15:45.835Z,99285.34
2019-01-17T11:18:30.670Z,99303.12
2019-01-17T11:21:28.930Z,99298.14
2019-01-17T11:24:04.288Z,99293.97
2019-01-17T11:26:49.178Z,99291.47
2019-01-17T11:29:24.831Z,99273.00
2019-01-17T11:32:00.301Z,99293.56
2019-01-17T11:34:54.529Z,99280.47
2019-01-17T11:37:42.447Z,99279.83
2019-01-17T11:40:18.191Z,99288.23
2019-01-17T11:42:59.409Z,99280.29
2019-01-17T11:45:36.288Z,99270.60
2019-01-17T11:48:20.838Z,99276.48
2019-01-17T11:50:59.822Z,99267.91
2019-01-17T11:53:51.312Z,99270.73
2019-01-17T11:56:33.205Z,99270.97
2019-01-17T11:59:06.011Z,99274.63
2019-01-17T12:01:47.869Z,99275.23
2019-01-17T12:04:32.073Z,99275.38
2019-01-17T12:07:09.779Z,99276.34
2019-01-17T12:09:39.615Z,99264.34
2019-01-17T12:12:10.188Z,99265.58
2019-01-17T12:14:39.918Z,99268.74
2019-01-17T12:17:09.632Z,99265.31
2019-01-17T12:19:39.248Z,99277.31
2019-01-17T12:22:08.715Z,99273.52
2019-01-17T12:24:38.313Z,99271.89
2019-01-17T12:27:07.808Z,99274.58
2019-01-17T12:29:37.569Z,99286.45
2019-01-17T12:32:07.211Z,99273.47
2019-01-17T12:34:36.812Z,99289.97
2019-01-17T12:37:06.520Z,99297.89
2019-01-17T12:39:36.330Z,99290.20
2019-01-17T12:42:05.855Z,99296.33
2019-01-17T12:44:37.683Z,99289.52
2019-01-17T12:47:07.364Z,99293.03
2019-01-17T12:49:37.083Z,99286.86
2019-01-17T12:52:06.691Z,99288.80
2019-01-17T12:54:36.312Z,99297.45
2019-01-17T12:57:05.884Z,99307.66
2019-01-17T12:59:35.548Z,99309.23
2019-01-17T13:02:07.770Z,99312.52
2019-01-17T13:04:37.356Z,99319.09
2019-01-17T13:07:07.147Z,99317.97
2019-01-17T13:09:36.794Z,99317.72
2019-01-17T13:12:06.373Z,99322.97
2019-01-17T13:14:36.017Z,99323.25
2019-01-17T13:17:05.749Z,99336.34
2019-01-17T13:19:35.328Z,99322.87
2019-01-17T13:22:05.075Z,99322.81
2019-01-17T13:24:34.695Z,99338.35
2019-01-17T13:27:04.671Z,99334.45
2019-01-17T13:29:34.286Z,99329.77
2019-01-17T13:32:04.010Z,99330.04
2019-01-17T13:34:33.587Z,99331.78
2019-01-17T13:37:03.336Z,99338.87
2019-01-17T13:39:32.986Z,99333.11
2019-01-17T13:42:02.584Z,99330.44
2019-01-17T13:44:32.242Z,99333.57
2019-01-17T13:47:01.826Z,99341.02
2019-01-17T13:49:31.515Z,99343.73
2019-01-17T13:52:01.191Z,99348.73
2019-01-17T13:54:31.137Z,99350.45
2019-01-17T13:57:07.320Z,99353.27
2019-01-17T13:59:35.842Z,99361.86
2019-01-17T14:02:05.380Z,99360.89
2019-01-17T14:04:35.229Z,99362.55
2019-01-17T14:07:04.812Z,99369.68
2019-01-17T14:09:34.465Z,99374.17
2019-01-17T14:12:04.107Z,99367.21
2019-01-17T14:14:33.773Z,99370.42
2019-01-17T14:17:03.286Z,99373.77
2019-01-17T14:19:32.923Z,99375.14
2019-01-17T14:22:03.354Z,99382.88
2019-01-17T14:24:33.203Z,99382.04
2019-01-17T14:27:02.781Z,99385.95
2019-01-17T14:29:32.438Z,99383.69
2019-01-17T14:32:02.090Z,99396.81
2019-01-17T14:34:31.773Z,99393.64
2019-01-17T14:37:01.281Z,99409.98
2019-01-17T14:39:32.673Z,99405.72
2019-01-17T14:42:02.338Z,99408.38
2019-01-17T14:44:31.945Z,99414.80
2019-01-17T14:47:01.486Z,99414.05
2019-01-17T14:49:31.046Z,99420.13
2019-01-17T14:52:00.582Z,99424.87
2019-01-17T14:54:30.144Z,99429.70
2019-01-17T14:56:59.695Z,99432.69
2019-01-17T14:59:29.452Z,99437.38
2019-01-17T15:01:59.036Z,99438.18
2019-01-17T15:04:28.671Z,99446.88
2019-01-17T15:06:58.357Z,99455.05
2019-01-17T15:09:28.021Z,99451.78
2019-01-17T15:11:57.809Z,99459.87
2019-01-17T15:14:33.355Z,99459.25
2019-01-17T15:17:03.067Z,99481.73
2019-01-17T15:19:32.834Z,99496.59
2019-01-17T15:22:02.553Z,99505.95
2019-01-17T15:24:32.156Z,99500.79
2019-01-17T15:27:01.846Z,99501.19
2019-01-17T15:29:31.372Z,99502.99
2019-01-17T15:32:01.073Z,99503.69
2019-01-17T15:34:30.751Z,99509.91
2019-01-17T15:37:00.357Z,99508.59
2019-01-17T15:39:30.041Z,99521.71
2019-01-17T15:41:59.701Z,99522.67
2019-01-17T15:44:29.377Z,99529.25
2019-01-17T15:46:58.913Z,99533.97
2019-01-17T15:49:28.427Z,99533.47
2019-01-17T15:51:58.095Z,99537.69
2019-01-17T15:54:27.641Z,99541.25
2019-01-17T15:56:57.241Z,99538.18
2019-01-17T15:59:26.919Z,99542.97
2019-01-17T16:01:56.490Z,99546.41
2019-01-17T16:04:27.161Z,99545.34
2019-01-17T16:06:56.695Z,99547.56
2019-01-17T16:09:26.349Z,99547.38
2019-01-17T16:11:56.014Z,99550.51
2019-01-17T16:14:25.626Z,99548.91
2019-01-17T16:16:55.253Z,99554.08
2019-01-17T16:19:24.911Z,99560.30
2019-01-17T16:21:55.185Z,99564.82
2019-01-17T16:24:24.890Z,99568.84
2019-01-17T16:26:54.535Z,99571.11
2019-01-17T16:29:24.285Z,99580.50
2019-01-17T16:31:53.983Z,99586.94
2019-01-17T16:34:23.528Z,99590.00
2019-01-17T16:36:53.181Z,99604.25
2019-01-17T16:39:22.683Z,99611.73
2019-01-17T16:41:52.225Z,99621.22
2019-01-17T16:44:21.813Z,99613.95
2019-01-17T16:46:51.345Z,99626.78
2019-01-17T16:49:20.941Z,99626.67
2019-01-17T16:51:50.505Z,99626.59
2019-01-17T16:54:20.192Z,99632.53
2019-01-17T16:56:49.888Z,99635.20
2019-01-17T16:59:19.498Z,99638.93
2019-01-17T17:01:49.171Z,99637.78
2019-01-17T17:04:18.894Z,99637.78
2019-01-17T17:06:48.499Z,99643.15
2019-01-17T17:09:19.030Z,99641.34
2019-01-17T17:11:48.631Z,99636.44
2019-01-17T17:14:18.458Z,99634.45
2019-01-17T17:16:47.952Z,99640.47
2019-01-17T17:19:17.750Z,99652.16
2019-01-17T17:21:47.707Z,99660.06
2019-01-17T17:24:17.504Z,99673.20
2019-01-17T17:26:47.223Z,99680.23
2019-01-17T17:29:16.971Z,99692.92
2019-01-17T17:31:46.586Z,99709.94
2019-01-17T17:34:16.146Z,99716.75
2019-01-17T17:36:45.705Z,99720.34
2019-01-17T17:39:17.700Z,99725.98
2019-01-17T17:41:47.407Z,99735.13
2019-01-17T17:44:17.127Z,99746.81
2019-01-17T17:46:46.607Z,99758.36
2019-01-17T17:49:16.744Z,99770.59
2019-01-17T17:51:46.493Z,99787.11
2019-01-17T17:54:16.122Z,99791.84
2019-01-17T17:56:45.736Z,99790.88
2019-01-17T17:59:16.153Z,99792.19
2019-01-17T18:01:47.353Z,99800.91
2019-01-17T18:04:17.053Z,99806.67
2019-01-17T18:06:46.604Z,99811.63
2019-01-17T18:09:16.146Z,99814.98
2019-01-17T18:11:45.769Z,99827.28
2019-01-17T18:14:15.746Z,99839.17
2019-01-17T18:16:45.867Z,99839.09
2019-01-17T18:19:15.712Z,99848.13
2019-01-17T18:21:45.223Z,99852.38
2019-01-17T18:24:14.900Z,99854.62
2019-01-17T18:26:44.410Z,99857.97
2019-01-17T18:29:14.023Z,99862.86
2019-01-17T18:31:43.594Z,99864.34
2019-01-17T18:34:13.087Z,99874.24
2019-01-17T18:36:42.561Z,99891.26
2019-01-17T18:39:12.514Z,99900.92
2019-01-17T18:41:42.050Z,99912.47
2019-01-17T18:44:11.568Z,99928.97
2019-01-17T18:46:41.679Z,99942.19
2019-01-17T18:49:11.205Z,99948.23
2019-01-17T18:51:41.009Z,99962.37
2019-01-17T18:54:10.477Z,99970.70
2019-01-17T18:56:41.957Z,99963.66
2019-01-17T18:59:11.845Z,99963.52
2019-01-17T19:01:41.841Z,99975.91
2019-01-17T19:04:12.797Z,99982.57
2019-01-17T19:06:42.384Z,99996.23
2019-01-17T19:09:14.903Z,100013.47
2019-01-17T19:11:44.596Z,100018.02
2019-01-17T19:14:14.225Z,100024.19
2019-01-17T19:16:44.189Z,100021.20
2019-01-17T19:19:13.961Z,100048.84
2019-01-17T19:21:43.617Z,100058.73
2019-01-17T19:24:13.161Z,100068.09
2019-01-17T19:26:42.681Z,100088.60
2019-01-17T19:29:12.323Z,100089.94
2019-01-17T19:31:42.028Z,100122.23
2019-01-17T19:34:11.719Z,100116.22
2019-01-17T19:36:41.897Z,100128.64
2019-01-17T19:39:12.371Z,100134.16
2019-01-17T19:41:42.799Z,100135.63
2019-01-17T19:44:12.645Z,100138.30
2019-01-17T19:46:42.542Z,100143.24
2019-01-17T19:49:12.077Z,100143.81
2019-01-17T19:51:42.196Z,100152.50
2019-01-17T19:54:11.797Z,100157.70
2019-01-17T19:56:43.499Z,100161.72
2019-01-17T19:59:13.069Z,100178.94
2019-01-17T20:01:42.810Z,100185.74
2019-01-17T20:04:12.252Z,100191.34
2019-01-17T20:06:41.808Z,100199.30
2019-01-17T20:09:15.882Z,100214.67
2019-01-17T20:11:46.204Z,100212.70
2019-01-17T20:14:15.997Z,100221.89
2019-01-17T20:16:50.787Z,100237.16
2019-01-17T20:19:20.935Z,100237.44
2019-01-17T20:21:50.602Z,100241.57
2019-01-17T20:24:20.148Z,100254.80
2019-01-17T20:26:49.692Z,100262.08
2019-01-17T20:29:19.266Z,100267.83
2019-01-17T20:31:48.843Z,100269.48
2019-01-17T20:34:18.427Z,100271.30
2019-01-17T20:36:51.928Z,100275.64
2019-01-17T20:39:21.480Z,100271.91
2019-01-17T20:41:51.041Z,100279.77
2019-01-17T20:44:20.599Z,100285.06
2019-01-17T20:46:50.143Z,100293.36
2019-01-17T20:49:19.705Z,100296.70
2019-01-17T20:51:49.240Z,100304.55
2019-01-17T20:54:18.761Z,100315.69
2019-01-17T20:56:48.223Z,100327.30
2019-01-17T20:59:18.760Z,100331.67
2019-01-17T21:01:51.550Z,100340.01
2019-01-17T21:04:21.077Z,100348.30
2019-01-17T21:06:50.535Z,100352.59
2019-01-17T21:09:20.180Z,100366.84
2019-01-17T21:11:49.817Z,100365.63
2019-01-17T21:14:19.320Z,100373.23
2019-01-17T21:16:49.200Z,100379.52
2019-01-17T21:19:19.117Z,100390.00
2019-01-17T21:21:49.023Z,100396.76
2019-01-17T21:24:19.080Z,100397.97
2019-01-17T21:26:48.728Z,100402.06
2019-01-17T21:29:18.666Z,100415.58
2019-01-17T21:31:48.491Z,100417.48
2019-01-17T21:34:18.018Z,100425.66
2019-01-17T21:36:47.674Z,100426.67
2019-01-17T21:39:18.069Z,100431.66
2019-01-17T21:41:47.648Z,100433.27
2019-01-17T21:44:17.563Z,100448.89
2019-01-17T21:46:47.381Z,100449.82
2019-01-17T21:49:16.861Z,100461.38
2019-01-17T21:51:46.319Z,100466.84
2019-01-17T21:54:16.607Z,100469.80
2019-01-17T21:56:46.172Z,100479.78
2019-01-17T21:59:15.647Z,100480.94
2019-01-17T22:01:45.146Z,100487.53
2019-01-17T22:04:14.700Z,100496.84
2019-01-17T22:06:44.203Z,100505.09
2019-01-17T22:09:13.708Z,100517.98
2019-01-17T22:11:43.451Z,100529.04
2019-01-17T22:14:13.022Z,100539.97
2019-01-17T22:16:42.532Z,100542.83
2019-01-17T22:19:12.192Z,100551.65
2019-01-17T22:21:41.665Z,100555.33
2019-01-17T22:24:11.181Z,100563.48
2019-01-17T22:26:40.762Z,100566.63
2019-01-17T22:29:11.369Z,100566.73
2019-01-17T22:31:40.960Z,100575.58
2019-01-17T22:34:10.515Z,100590.88
2019-01-17T22:36:41.236Z,100596.35
2019-01-17T22:39:13.724Z,100601.34
2019-01-17T22:41:43.250Z,100599.43
2019-01-17T22:44:12.752Z,100607.09
2019-01-17T22:46:42.190Z,100614.08
2019-01-17T22:49:11.794Z,100618.62
2019-01-17T22:51:41.266Z,100618.69
2019-01-17T22:54:10.851Z,100624.48
2019-01-17T22:56:40.455Z,100637.31
2019-01-17T22:59:10.333Z,100637.89
2019-01-17T23:01:39.883Z,100648.57
2019-01-17T23:04:11.377Z,100651.99
2019-01-17T23:06:40.985Z,100652.16
2019-01-17T23:09:12.177Z,100663.45
2019-01-17T23:11:41.677Z,100666.74
2019-01-17T23:14:11.181Z,100673.55
2019-01-17T23:16:41.098Z,100678.17
2019-01-17T23:19:12.263Z,100675.50
2019-01-17T23:21:41.837Z,100683.10
2019-01-17T23:24:11.345Z,100688.81
2019-01-17T23:26:41.011Z,100688.41
2019-01-17T23:29:15.974Z,100697.75
2019-01-17T23:31:43.304Z,100698.26
2019-01-17T23:34:13.098Z,100712.63
2019-01-17T23:36:43.004Z,100706.91
2019-01-17T23:39:12.515Z,100714.56
2019-01-17T23:41:42.095Z,100721.34
2019-01-17T23:44:11.736Z,100729.85
2019-01-17T23:46:41.415Z,100737.16
2019-01-17T23:49:10.962Z,100739.38
2019-01-17T23:51:40.782Z,100742.75
2019-01-17T23:54:10.331Z,100747.38
2019-01-17T23:56:39.922Z,100757.54
2019-01-17T23:59:11.472Z,100756.72
